Time;durP1;ratioP1;P1;durP2;ratioP2;P2;SDS_P1;SDS_P2;PMS_P1;PMS_P2;Temp;Humidity;BMP_temperature;BMP_pressure;BME280_temperature;BME280_humidity;BME280_pressure;Samples;Min_cycle;Max_cycle;Signal;HPM_P1;HPM_P2
2022/01/14 00:01:20;;;;;;;5.03;4.63;;;;;;;;;;6176631;23;20016;-40
2022/01/14 00:03:46;;;;;;;4.97;4.57;;;;;;;;;;6176369;23;20013;-40
2022/01/14 00:06:11;;;;;;;6.68;5.03;;;;;;;;;;6177061;23;20402;-41
2022/01/14 00:08:36;;;;;;;5.65;5.13;;;;;;;;;;6174927;23;20012;-41
2022/01/14 00:11:03;;;;;;;5.40;4.70;;;;;;;;;;6177120;23;20016;-40
2022/01/14 00:16:12;;;;;;;4.75;4.35;;;;;;;;;;6177704;23;21021;-44
2022/01/14 00:18:38;;;;;;;4.78;4.28;;;;;;;;;;6175583;23;20009;-40
2022/01/14 00:21:03;;;;;;;6.10;5.50;;;;;;;;;;6177128;23;20020;-40
2022/01/14 00:23:36;;;;;;;5.43;4.50;;;;;;;;;;6176899;23;20439;-40
2022/01/14 00:34:23;;;;;;;6.05;5.00;;;;;;;;;;6158555;23;20442;-40
2022/01/14 00:36:49;;;;;;;4.53;4.05;;;;;;;;;;6178450;23;20052;-40
2022/01/14 00:39:14;;;;;;;10.15;5.25;;;;;;;;;;6177433;23;20017;-41
2022/01/14 00:41:39;;;;;;;6.10;4.25;;;;;;;;;;6178778;23;20033;-40
2022/01/14 00:44:09;;;;;;;5.50;4.88;;;;;;;;;;6178340;23;20741;-41
2022/01/14 00:46:35;;;;;;;4.13;3.72;;;;;;;;;;6177986;23;20466;-40
2022/01/14 00:49:01;;;;;;;4.88;4.35;;;;;;;;;;6178508;23;20129;-41
2022/01/14 00:51:26;;;;;;;4.72;4.28;;;;;;;;;;6151476;23;20024;-40
2022/01/14 00:53:52;;;;;;;5.03;4.60;;;;;;;;;;6177817;23;20624;-41
2022/01/14 00:56:27;;;;;;;6.22;4.88;;;;;;;;;;6178699;23;20036;-40
2022/01/14 01:01:37;;;;;;;4.57;4.13;;;;;;;;;;6178172;23;20087;-40
2022/01/14 01:04:02;;;;;;;6.38;4.10;;;;;;;;;;6178171;23;20016;-40
2022/01/14 01:06:27;;;;;;;4.65;3.20;;;;;;;;;;6177442;23;20016;-42
2022/01/14 01:08:55;;;;;;;5.32;3.65;;;;;;;;;;6177893;23;20120;-41
2022/01/14 01:11:25;;;;;;;3.53;3.22;;;;;;;;;;6177809;23;20803;-40
2022/01/14 01:14:00;;;;;;;5.32;4.07;;;;;;;;;;6177851;23;20012;-40
2022/01/14 01:16:26;;;;;;;3.42;3.15;;;;;;;;;;6177843;23;20032;-40
2022/01/14 01:18:51;;;;;;;6.38;4.03;;;;;;;;;;6177483;23;20325;-40
2022/01/14 01:21:16;;;;;;;4.80;4.38;;;;;;;;;;6177501;23;20009;-41
2022/01/14 01:23:42;;;;;;;4.47;3.63;;;;;;;;;;6177667;23;20048;-40
2022/01/14 01:26:15;;;;;;;6.18;4.47;;;;;;;;;;6178442;23;20016;-42
2022/01/14 01:28:57;;;;;;;4.70;4.22;;;;;;;;;;6177773;23;20426;-42
2022/01/14 01:31:35;;;;;;;5.97;4.00;;;;;;;;;;6176601;23;20144;-40
2022/01/14 01:34:00;;;;;;;4.28;3.85;;;;;;;;;;6177845;23;20092;-41
2022/01/14 01:36:26;;;;;;;3.85;3.45;;;;;;;;;;6177123;23;20106;-41
2022/01/14 01:38:51;;;;;;;5.53;4.75;;;;;;;;;;6178105;23;20009;-40
2022/01/14 01:41:17;;;;;;;4.75;3.90;;;;;;;;;;6177045;23;20496;-42
2022/01/14 01:43:44;;;;;;;3.65;3.28;;;;;;;;;;6178170;23;20071;-41
2022/01/14 01:46:10;;;;;;;4.30;3.30;;;;;;;;;;6177465;23;20347;-40
2022/01/14 01:48:35;;;;;;;3.78;3.25;;;;;;;;;;6177620;23;20015;-40
2022/01/14 01:51:03;;;;;;;3.97;3.35;;;;;;;;;;6177542;23;20012;-40
2022/01/14 01:53:28;;;;;;;3.65;3.35;;;;;;;;;;6177430;23;20017;-40
2022/01/14 01:55:53;;;;;;;5.20;3.63;;;;;;;;;;6177570;23;20250;-40
2022/01/14 01:58:19;;;;;;;4.88;3.65;;;;;;;;;;6177509;23;20009;-42
2022/01/14 02:00:44;;;;;;;3.55;3.25;;;;;;;;;;6177234;23;20017;-40
2022/01/14 02:03:12;;;;;;;4.28;3.35;;;;;;;;;;6177869;23;20040;-40
2022/01/14 02:05:37;;;;;;;3.40;3.10;;;;;;;;;;6175712;23;20025;-41
2022/01/14 02:08:02;;;;;;;6.65;4.25;;;;;;;;;;6178041;23;20451;-40
2022/01/14 02:10:27;;;;;;;4.30;3.67;;;;;;;;;;6176487;23;20748;-41
2022/01/14 02:12:54;;;;;;;6.10;3.83;;;;;;;;;;6177834;23;20013;-40
2022/01/14 02:18:26;;;;;;;4.22;3.78;;;;;;;;;;6177661;23;20016;-41
2022/01/14 02:23:33;;;;;;;8.50;4.90;;;;;;;;;;6176559;23;20030;-40
2022/01/14 02:25:58;;;;;;;4.50;4.10;;;;;;;;;;6177608;23;20493;-41
2022/01/14 02:28:24;;;;;;;5.90;3.95;;;;;;;;;;6176216;23;20100;-41
2022/01/14 02:30:49;;;;;;;4.45;3.97;;;;;;;;;;6177136;23;20332;-41
2022/01/14 02:33:15;;;;;;;5.05;4.30;;;;;;;;;;6175956;23;20025;-40
2022/01/14 02:35:42;;;;;;;5.00;3.65;;;;;;;;;;6151617;23;20025;-40
2022/01/14 02:38:11;;;;;;;4.85;4.32;;;;;;;;;;6176893;23;20009;-40
2022/01/14 02:40:37;;;;;;;5.43;4.35;;;;;;;;;;6176471;23;20023;-41
2022/01/14 02:43:05;;;;;;;4.40;3.65;;;;;;;;;;6177829;23;20084;-40
2022/01/14 02:45:32;;;;;;;4.75;2.97;;;;;;;;;;6176591;23;20009;-40
2022/01/14 02:47:58;;;;;;;4.03;3.65;;;;;;;;;;6176995;23;20470;-40
2022/01/14 02:50:25;;;;;;;4.80;3.30;;;;;;;;;;6176519;23;20017;-41
2022/01/14 02:52:57;;;;;;;3.60;3.30;;;;;;;;;;6177520;23;20156;-42
2022/01/14 02:55:27;;;;;;;3.97;3.50;;;;;;;;;;6175707;23;20029;-42
2022/01/14 02:57:53;;;;;;;4.45;4.05;;;;;;;;;;6177292;23;20009;-40
2022/01/14 03:00:20;;;;;;;5.35;3.88;;;;;;;;;;6175755;23;20024;-40
2022/01/14 03:02:46;;;;;;;5.80;3.80;;;;;;;;;;6177149;23;20017;-40
2022/01/14 03:05:12;;;;;;;3.67;3.33;;;;;;;;;;6176911;23;20021;-41
2022/01/14 03:07:38;;;;;;;6.65;4.47;;;;;;;;;;6175832;23;20009;-40
2022/01/14 03:10:04;;;;;;;4.22;3.58;;;;;;;;;;6176887;23;20013;-42
2022/01/14 03:12:29;;;;;;;5.53;4.25;;;;;;;;;;6176964;23;20979;-40
2022/01/14 03:14:54;;;;;;;4.72;4.30;;;;;;;;;;6177140;23;20024;-40
2022/01/14 03:17:20;;;;;;;4.10;3.70;;;;;;;;;;6176191;23;20646;-41
2022/01/14 03:19:46;;;;;;;3.85;3.55;;;;;;;;;;6176323;23;20009;-40
2022/01/14 03:22:27;;;;;;;4.13;3.83;;;;;;;;;;6177300;23;20059;-41
2022/01/14 03:27:18;;;;;;;4.97;4.55;;;;;;;;;;6177564;23;20112;-40
2022/01/14 03:29:44;;;;;;;4.05;3.65;;;;;;;;;;6176121;23;20021;-40
2022/01/14 03:32:10;;;;;;;3.90;3.30;;;;;;;;;;6177028;23;20076;-40
2022/01/14 03:34:35;;;;;;;3.75;3.45;;;;;;;;;;6175857;23;20609;-40
2022/01/14 03:37:00;;;;;;;4.80;3.50;;;;;;;;;;6177274;23;20021;-40
2022/01/14 03:39:25;;;;;;;4.93;4.10;;;;;;;;;;6174904;23;20009;-40
2022/01/14 03:41:51;;;;;;;5.47;3.28;;;;;;;;;;6177157;23;20083;-40
2022/01/14 03:44:17;;;;;;;4.43;3.78;;;;;;;;;;6175436;23;20044;-40
2022/01/14 03:46:42;;;;;;;4.05;3.58;;;;;;;;;;6177077;23;20087;-41
2022/01/14 03:49:07;;;;;;;5.30;3.92;;;;;;;;;;6176111;23;20930;-40
2022/01/14 03:51:33;;;;;;;5.63;4.63;;;;;;;;;;6175434;23;20463;-40
2022/01/14 03:53:58;;;;;;;5.45;4.35;;;;;;;;;;6176904;23;20071;-42
2022/01/14 03:56:25;;;;;;;3.78;3.47;;;;;;;;;;6176361;23;20014;-40
2022/01/14 03:58:50;;;;;;;4.82;4.07;;;;;;;;;;6178414;23;20028;-40
2022/01/14 04:01:16;;;;;;;4.03;3.63;;;;;;;;;;6178224;23;20013;-41
2022/01/14 04:03:42;;;;;;;4.05;3.65;;;;;;;;;;6178255;23;20043;-40
2022/01/14 04:06:07;;;;;;;4.63;3.67;;;;;;;;;;6179163;23;20024;-40
2022/01/14 04:08:32;;;;;;;5.35;4.07;;;;;;;;;;6177596;23;20071;-43
2022/01/14 04:11:00;;;;;;;6.05;4.22;;;;;;;;;;6179063;23;20013;-40
2022/01/14 04:13:48;;;;;;;4.35;4.05;;;;;;;;;;6177154;23;20039;-41
2022/01/14 04:16:14;;;;;;;5.07;4.57;;;;;;;;;;6179076;23;20332;-40
2022/01/14 04:18:39;;;;;;;5.63;5.03;;;;;;;;;;6177691;23;20071;-41
2022/01/14 04:21:05;;;;;;;4.95;4.45;;;;;;;;;;6176890;23;20021;-42
2022/01/14 04:23:30;;;;;;;4.30;3.90;;;;;;;;;;6178331;23;20035;-40
2022/01/14 04:25:55;;;;;;;4.45;4.05;;;;;;;;;;6178567;23;20474;-40
2022/01/14 04:28:22;;;;;;;4.43;4.03;;;;;;;;;;6177902;23;20017;-40
2022/01/14 04:30:48;;;;;;;3.72;3.40;;;;;;;;;;6178201;23;20021;-42
2022/01/14 04:33:14;;;;;;;4.10;3.80;;;;;;;;;;6119710;23;20020;-41
2022/01/14 04:35:39;;;;;;;5.45;4.45;;;;;;;;;;6119013;23;20014;-40
2022/01/14 04:38:04;;;;;;;4.70;4.20;;;;;;;;;;6119240;23;20436;-42
2022/01/14 04:40:30;;;;;;;5.28;3.88;;;;;;;;;;6119034;23;20034;-42
2022/01/14 04:42:57;;;;;;;4.53;4.13;;;;;;;;;;6118917;23;20049;-41
2022/01/14 04:45:43;;;;;;;4.55;4.10;;;;;;;;;;6118670;23;20093;-42
2022/01/14 04:48:10;;;;;;;4.15;3.75;;;;;;;;;;6119961;23;20013;-40
2022/01/14 04:50:35;;;;;;;5.65;3.63;;;;;;;;;;6118817;23;20010;-40
2022/01/14 04:53:01;;;;;;;4.55;3.65;;;;;;;;;;6119755;23;20014;-41
2022/01/14 04:55:27;;;;;;;4.28;3.72;;;;;;;;;;6118627;23;20099;-40
2022/01/14 04:57:54;;;;;;;4.32;3.85;;;;;;;;;;6119196;23;20020;-40
2022/01/14 05:00:23;;;;;;;5.47;3.90;;;;;;;;;;6116821;23;20018;-40
2022/01/14 05:02:51;;;;;;;7.78;5.38;;;;;;;;;;6119963;23;20006;-40
2022/01/14 05:05:19;;;;;;;5.50;4.95;;;;;;;;;;6119127;23;20018;-41
2022/01/14 05:07:46;;;;;;;5.95;5.20;;;;;;;;;;6119052;23;20028;-41
2022/01/14 05:12:55;;;;;;;6.93;4.75;;;;;;;;;;6119433;23;20093;-40
2022/01/14 05:15:20;;;;;;;5.38;4.82;;;;;;;;;;6118650;23;20104;-40
2022/01/14 05:17:46;;;;;;;5.68;5.07;;;;;;;;;;6119138;23;20017;-40
2022/01/14 05:20:12;;;;;;;6.57;5.07;;;;;;;;;;6118657;23;20006;-40
2022/01/14 05:22:37;;;;;;;6.70;4.55;;;;;;;;;;6118817;23;20038;-40
2022/01/14 05:25:03;;;;;;;4.93;4.50;;;;;;;;;;6119150;23;20018;-40
2022/01/14 05:27:29;;;;;;;7.90;5.00;;;;;;;;;;6118965;23;20014;-40
2022/01/14 05:29:54;;;;;;;5.28;4.78;;;;;;;;;;6119529;23;20054;-40
2022/01/14 05:32:21;;;;;;;5.88;5.28;;;;;;;;;;6155166;23;20451;-40
2022/01/14 05:34:46;;;;;;;6.30;5.70;;;;;;;;;;6178173;23;20731;-40
2022/01/14 05:37:12;;;;;;;4.80;4.40;;;;;;;;;;6177572;23;20028;-40
2022/01/14 05:39:37;;;;;;;5.72;5.18;;;;;;;;;;6177660;23;20025;-40
2022/01/14 05:42:03;;;;;;;5.63;5.13;;;;;;;;;;6177804;23;20017;-40
2022/01/14 05:44:29;;;;;;;5.57;4.68;;;;;;;;;;6177845;23;20045;-40
2022/01/14 05:46:55;;;;;;;5.80;5.10;;;;;;;;;;6177789;23;20013;-40
2022/01/14 05:49:21;;;;;;;5.00;4.50;;;;;;;;;;6177445;23;20055;-41
2022/01/14 05:51:47;;;;;;;5.35;4.85;;;;;;;;;;6177615;23;20021;-40
2022/01/14 05:54:12;;;;;;;5.65;5.03;;;;;;;;;;6178118;23;20331;-41
2022/01/14 05:56:38;;;;;;;5.07;4.60;;;;;;;;;;6176636;23;20013;-40
2022/01/14 05:59:03;;;;;;;5.95;5.35;;;;;;;;;;6178000;23;20021;-40
2022/01/14 06:01:30;;;;;;;5.90;5.20;;;;;;;;;;6176380;23;20433;-40
2022/01/14 06:03:56;;;;;;;6.20;4.95;;;;;;;;;;6178139;23;20063;-40
2022/01/14 06:06:21;;;;;;;5.30;4.80;;;;;;;;;;6177182;23;20017;-42
2022/01/14 06:08:49;;;;;;;5.55;5.00;;;;;;;;;;6177531;23;20012;-40
2022/01/14 06:11:14;;;;;;;5.85;4.47;;;;;;;;;;6176872;23;20637;-40
2022/01/14 06:13:39;;;;;;;7.68;4.80;;;;;;;;;;6177828;23;20029;-42
2022/01/14 06:16:05;;;;;;;6.50;4.90;;;;;;;;;;6177585;23;20541;-40
2022/01/14 06:18:30;;;;;;;5.68;5.13;;;;;;;;;;6177228;23;20621;-40
2022/01/14 06:20:55;;;;;;;4.93;4.15;;;;;;;;;;6177364;23;20013;-40
2022/01/14 06:23:20;;;;;;;5.85;4.93;;;;;;;;;;6177433;23;20698;-40
2022/01/14 06:25:46;;;;;;;5.90;5.05;;;;;;;;;;6177353;23;20312;-40
2022/01/14 06:28:11;;;;;;;5.03;4.50;;;;;;;;;;6177832;23;20578;-40
2022/01/14 06:30:36;;;;;;;7.35;5.13;;;;;;;;;;6176720;23;20538;-41
2022/01/14 06:33:01;;;;;;;8.27;5.40;;;;;;;;;;6177416;23;20410;-40
2022/01/14 06:35:27;;;;;;;7.30;5.57;;;;;;;;;;6176188;23;20028;-42
2022/01/14 06:37:52;;;;;;;5.75;5.07;;;;;;;;;;6177195;23;20023;-40
2022/01/14 06:40:17;;;;;;;6.93;5.18;;;;;;;;;;6176386;23;20009;-40
2022/01/14 06:42:42;;;;;;;5.38;4.88;;;;;;;;;;6151366;23;20048;-40
2022/01/14 06:45:08;;;;;;;7.93;5.15;;;;;;;;;;6177465;23;20024;-42
2022/01/14 06:47:34;;;;;;;5.47;4.95;;;;;;;;;;6176560;23;20111;-42
2022/01/14 06:49:59;;;;;;;6.30;5.53;;;;;;;;;;6176595;23;20021;-42
2022/01/14 06:52:24;;;;;;;5.30;4.80;;;;;;;;;;6176675;23;20016;-44
2022/01/14 06:54:49;;;;;;;6.53;5.88;;;;;;;;;;6176782;23;20019;-43
2022/01/14 06:57:15;;;;;;;6.15;5.10;;;;;;;;;;6176967;23;20045;-41
2022/01/14 06:59:40;;;;;;;6.32;5.75;;;;;;;;;;6177165;23;20017;-41
2022/01/14 07:02:06;;;;;;;6.75;6.05;;;;;;;;;;6177098;23;20092;-42
2022/01/14 07:04:31;;;;;;;6.82;5.93;;;;;;;;;;6176445;23;20013;-40
2022/01/14 07:06:56;;;;;;;7.40;6.70;;;;;;;;;;6177738;23;20312;-40
2022/01/14 07:09:21;;;;;;;9.38;6.30;;;;;;;;;;6176741;23;20510;-40
2022/01/14 07:11:52;;;;;;;8.73;6.90;;;;;;;;;;6176757;23;20017;-42
2022/01/14 07:14:18;;;;;;;6.70;5.65;;;;;;;;;;6177225;23;20316;-40
2022/01/14 07:16:44;;;;;;;6.50;5.80;;;;;;;;;;6177176;23;20028;-40
2022/01/14 07:19:09;;;;;;;7.10;5.88;;;;;;;;;;6177201;23;20450;-40
2022/01/14 07:21:34;;;;;;;6.93;5.82;;;;;;;;;;6175998;23;20009;-40
2022/01/14 07:24:00;;;;;;;6.40;5.78;;;;;;;;;;6177300;23;20013;-40
2022/01/14 07:26:26;;;;;;;6.53;5.47;;;;;;;;;;6176435;23;20044;-40
2022/01/14 07:28:51;;;;;;;6.18;5.00;;;;;;;;;;6177009;23;20117;-40
2022/01/14 07:31:16;;;;;;;6.68;5.95;;;;;;;;;;6176312;23;20108;-40
2022/01/14 07:33:41;;;;;;;8.45;6.68;;;;;;;;;;6176527;23;20013;-40
2022/01/14 07:36:07;;;;;;;8.15;5.40;;;;;;;;;;6177444;23;20120;-40
2022/01/14 07:38:32;;;;;;;9.23;5.75;;;;;;;;;;6176369;23;20009;-40
2022/01/14 07:40:57;;;;;;;8.32;6.43;;;;;;;;;;6177641;23;20017;-40
2022/01/14 07:43:23;;;;;;;7.45;6.55;;;;;;;;;;6175728;23;20443;-40
2022/01/14 07:45:48;;;;;;;7.35;6.65;;;;;;;;;;6177387;23;20013;-40
2022/01/14 07:48:13;;;;;;;7.47;6.70;;;;;;;;;;6176526;23;20095;-40
2022/01/14 07:50:39;;;;;;;8.27;6.57;;;;;;;;;;6176630;23;20009;-40
2022/01/14 07:53:04;;;;;;;6.35;5.75;;;;;;;;;;6176523;23;20125;-40
2022/01/14 07:55:30;;;;;;;6.88;6.18;;;;;;;;;;6175763;23;20021;-40
2022/01/14 07:57:55;;;;;;;8.57;6.65;;;;;;;;;;6176893;23;20014;-41
2022/01/14 08:00:21;;;;;;;7.47;6.65;;;;;;;;;;6176249;23;20059;-40
2022/01/14 08:02:46;;;;;;;7.07;6.25;;;;;;;;;;6176606;23;20066;-40
2022/01/14 08:05:12;;;;;;;7.05;6.25;;;;;;;;;;6174485;23;20017;-41
2022/01/14 08:07:44;;;;;;;8.35;6.35;;;;;;;;;;6176181;23;20017;-40
2022/01/14 08:10:11;;;;;;;6.63;5.90;;;;;;;;;;6177270;23;20117;-40
2022/01/14 08:12:36;;;;;;;6.90;6.20;;;;;;;;;;6176052;23;20009;-41
2022/01/14 08:15:04;;;;;;;8.50;6.65;;;;;;;;;;6176402;23;20017;-41
2022/01/14 08:17:29;;;;;;;8.32;6.10;;;;;;;;;;6176300;23;20013;-41
2022/01/14 08:19:55;;;;;;;7.90;6.28;;;;;;;;;;6176735;23;20539;-40
2022/01/14 08:22:20;;;;;;;7.88;7.07;;;;;;;;;;6175791;23;20005;-40
2022/01/14 08:24:45;;;;;;;7.05;6.43;;;;;;;;;;6176339;23;20021;-40
2022/01/14 08:27:10;;;;;;;8.85;6.95;;;;;;;;;;6176825;23;20044;-40
2022/01/14 08:29:36;;;;;;;7.97;7.22;;;;;;;;;;6176914;23;20012;-40
2022/01/14 08:32:01;;;;;;;9.32;7.68;;;;;;;;;;6175577;23;20487;-40
2022/01/14 08:34:27;;;;;;;7.10;6.40;;;;;;;;;;6175749;23;20347;-39
2022/01/14 08:36:52;;;;;;;7.32;6.47;;;;;;;;;;6173924;23;20025;-41
2022/01/14 08:39:18;;;;;;;9.05;7.60;;;;;;;;;;6173942;23;20024;-41
2022/01/14 08:41:43;;;;;;;7.55;6.85;;;;;;;;;;6173286;23;20021;-40
2022/01/14 08:44:09;;;;;;;8.40;7.45;;;;;;;;;;6175550;23;20656;-41
2022/01/14 08:46:34;;;;;;;8.13;6.70;;;;;;;;;;6174824;23;20005;-40
2022/01/14 08:49:01;;;;;;;7.13;6.45;;;;;;;;;;6174690;23;20013;-40
2022/01/14 08:51:28;;;;;;;7.15;6.45;;;;;;;;;;6172904;23;20021;-40
2022/01/14 08:53:53;;;;;;;9.15;8.25;;;;;;;;;;6176161;23;20090;-40
2022/01/14 08:56:19;;;;;;;7.97;7.25;;;;;;;;;;6173658;23;20108;-40
2022/01/14 08:58:44;;;;;;;8.30;7.50;;;;;;;;;;6176651;23;20787;-40
2022/01/14 09:01:09;;;;;;;14.15;12.70;;;;;;;;;;6175285;23;20013;-40
2022/01/14 09:03:35;;;;;;;8.70;7.80;;;;;;;;;;6175508;23;20024;-43
2022/01/14 09:06:00;;;;;;;11.07;7.72;;;;;;;;;;6175630;23;20020;-42
2022/01/14 09:08:25;;;;;;;9.23;7.68;;;;;;;;;;6175208;23;20056;-40
2022/01/14 09:10:51;;;;;;;8.82;7.90;;;;;;;;;;6169850;23;20013;-40
2022/01/14 09:13:17;;;;;;;8.45;7.63;;;;;;;;;;6172705;23;20017;-40
2022/01/14 09:15:43;;;;;;;8.60;7.72;;;;;;;;;;6172761;23;20088;-41
2022/01/14 09:18:08;;;;;;;8.57;7.78;;;;;;;;;;6172350;23;20036;-40
2022/01/14 09:20:33;;;;;;;8.27;7.47;;;;;;;;;;6173187;23;20049;-40
2022/01/14 09:22:59;;;;;;;8.15;7.15;;;;;;;;;;6172522;23;20021;-40
2022/01/14 09:25:24;;;;;;;8.13;7.32;;;;;;;;;;6147390;23;20013;-42
2022/01/14 09:27:52;;;;;;;7.88;7.07;;;;;;;;;;6172519;23;20087;-42
2022/01/14 09:30:17;;;;;;;10.32;8.20;;;;;;;;;;6172702;23;20439;-40
2022/01/14 09:32:42;;;;;;;9.57;7.55;;;;;;;;;;6173012;23;20125;-40
2022/01/14 09:35:08;;;;;;;9.77;8.10;;;;;;;;;;6172300;23;20067;-41
2022/01/14 09:37:33;;;;;;;8.48;7.68;;;;;;;;;;6147164;23;20017;-41
2022/01/14 09:39:59;;;;;;;8.27;7.47;;;;;;;;;;6173016;23;20016;-40
2022/01/14 09:42:24;;;;;;;8.88;7.97;;;;;;;;;;6172324;23;20013;-40
2022/01/14 09:44:49;;;;;;;9.27;7.53;;;;;;;;;;6173309;23;20068;-42
2022/01/14 09:47:19;;;;;;;8.30;7.35;;;;;;;;;;6172862;23;20020;-40
2022/01/14 09:49:45;;;;;;;9.05;8.07;;;;;;;;;;6174127;23;20025;-40
2022/01/14 09:52:14;;;;;;;8.73;8.00;;;;;;;;;;6147077;23;20013;-40
2022/01/14 09:54:40;;;;;;;;;;;;;;;;;;6172994;23;20028;-40
2022/01/14 09:57:06;;;;;;;9.40;8.45;;;;;;;;;;6172305;23;20690;-40
2022/01/14 09:59:31;;;;;;;10.52;9.52;;;;;;;;;;6172306;23;20020;-41
2022/01/14 10:01:57;;;;;;;10.75;9.45;;;;;;;;;;6173435;23;20013;-41
2022/01/14 10:04:22;;;;;;;11.82;10.15;;;;;;;;;;6173470;23;20016;-40
2022/01/14 10:06:58;;;;;;;11.60;9.40;;;;;;;;;;6172750;23;20382;-40
2022/01/14 10:09:33;;;;;;;10.23;9.20;;;;;;;;;;6172921;23;20017;-41
2022/01/14 10:12:05;;;;;;;10.00;8.85;;;;;;;;;;6172241;23;20021;-40
2022/01/14 10:14:31;;;;;;;13.68;10.40;;;;;;;;;;6170917;23;20079;-40
2022/01/14 10:16:57;;;;;;;11.05;9.93;;;;;;;;;;6145454;23;20025;-40
2022/01/14 10:19:26;;;;;;;11.05;10.00;;;;;;;;;;6172668;23;20009;-40
2022/01/14 10:21:52;;;;;;;11.70;8.98;;;;;;;;;;6173095;23;20044;-42
2022/01/14 10:24:18;;;;;;;11.07;9.98;;;;;;;;;;6172576;23;20324;-40
2022/01/14 10:26:48;;;;;;;10.07;9.07;;;;;;;;;;6172580;23;20086;-42
2022/01/14 10:29:13;;;;;;;9.93;9.05;;;;;;;;;;6171986;23;20020;-42
2022/01/14 10:31:39;;;;;;;12.38;10.48;;;;;;;;;;6172551;23;20028;-40
2022/01/14 10:34:14;;;;;;;13.05;9.85;;;;;;;;;;6172661;23;20944;-41
2022/01/14 10:36:41;;;;;;;10.88;9.48;;;;;;;;;;6171914;23;20017;-40
2022/01/14 10:39:26;;;;;;;16.08;10.68;;;;;;;;;;6172880;23;20021;-40
2022/01/14 10:41:55;;;;;;;12.15;10.77;;;;;;;;;;6167285;23;20013;-40
2022/01/14 10:44:28;;;;;;;10.80;9.70;;;;;;;;;;6172583;23;20066;-40
2022/01/14 10:47:12;;;;;;;10.80;9.70;;;;;;;;;;6172429;23;20089;-41
2022/01/14 10:49:37;;;;;;;9.98;8.93;;;;;;;;;;6171468;23;20027;-41
2022/01/14 10:52:12;;;;;;;10.65;9.55;;;;;;;;;;6171524;23;20432;-40
2022/01/14 10:54:41;;;;;;;10.55;9.27;;;;;;;;;;6171674;23;20024;-43
2022/01/14 10:57:20;;;;;;;11.27;9.82;;;;;;;;;;6172593;23;20025;-41
2022/01/14 10:59:46;;;;;;;11.02;9.23;;;;;;;;;;6172564;23;20028;-41
2022/01/14 11:02:30;;;;;;;12.48;9.27;;;;;;;;;;6173270;23;20005;-41
2022/01/14 11:05:03;;;;;;;11.32;8.82;;;;;;;;;;6171432;23;20090;-41
2022/01/14 11:07:28;;;;;;;12.25;8.98;;;;;;;;;;6167553;23;20017;-42
2022/01/14 11:09:53;;;;;;;12.20;8.82;;;;;;;;;;6171581;23;20744;-44
2022/01/14 11:12:19;;;;;;;11.35;9.82;;;;;;;;;;6171654;23;20016;-40
2022/01/14 11:14:44;;;;;;;11.90;10.80;;;;;;;;;;6172693;23;20289;-42
2022/01/14 11:17:10;;;;;;;12.25;10.98;;;;;;;;;;6172063;23;20108;-40
2022/01/14 11:19:35;;;;;;;10.27;9.38;;;;;;;;;;6172458;23;20013;-40
2022/01/14 11:24:46;;;;;;;9.43;8.40;;;;;;;;;;6171880;23;20513;-42
2022/01/14 11:27:13;;;;;;;9.93;8.98;;;;;;;;;;6172336;23;20035;-42
2022/01/14 11:29:40;;;;;;;8.80;7.90;;;;;;;;;;6171910;23;20059;-40
2022/01/14 11:32:05;;;;;;;9.88;8.80;;;;;;;;;;6171463;23;20025;-40
2022/01/14 11:34:33;;;;;;;8.75;7.95;;;;;;;;;;6171782;23;20104;-40
2022/01/14 11:37:00;;;;;;;9.45;8.45;;;;;;;;;;6172599;23;20103;-44
2022/01/14 11:39:31;;;;;;;12.40;9.32;;;;;;;;;;6171236;23;20084;-41
2022/01/14 11:41:57;;;;;;;9.05;8.23;;;;;;;;;;6173424;23;20013;-44
2022/01/14 11:44:42;;;;;;;9.90;8.13;;;;;;;;;;6173257;23;20044;-45
2022/01/14 11:47:08;;;;;;;9.05;8.20;;;;;;;;;;6173009;23;20013;-42
2022/01/14 11:49:38;;;;;;;8.52;7.65;;;;;;;;;;6172999;23;20178;-41
2022/01/14 11:52:05;;;;;;;8.90;7.82;;;;;;;;;;6172965;23;20090;-43
2022/01/14 11:54:46;;;;;;;9.00;8.07;;;;;;;;;;6171940;23;20017;-43
2022/01/14 11:57:31;;;;;;;9.73;8.65;;;;;;;;;;6173038;23;20479;-42
2022/01/14 11:59:56;;;;;;;9.82;8.75;;;;;;;;;;6170325;23;20059;-43
2022/01/14 12:02:29;;;;;;;9.07;8.18;;;;;;;;;;6172426;23;20025;-41
2022/01/14 12:05:01;;;;;;;8.98;8.02;;;;;;;;;;6172113;23;20009;-41
2022/01/14 12:07:26;;;;;;;10.27;7.72;;;;;;;;;;6171383;23;20017;-41
2022/01/14 12:09:59;;;;;;;8.43;7.63;;;;;;;;;;6172044;23;20024;-41
2022/01/14 12:12:30;;;;;;;11.23;8.27;;;;;;;;;;6172377;23;20024;-41
2022/01/14 12:14:58;;;;;;;10.02;8.88;;;;;;;;;;6171431;23;20006;-41
2022/01/14 12:17:36;;;;;;;7.93;7.15;;;;;;;;;;6168171;23;20029;-41
2022/01/14 12:20:13;;;;;;;8.50;7.65;;;;;;;;;;6170426;23;20098;-41
2022/01/14 12:22:40;;;;;;;9.38;8.23;;;;;;;;;;6170236;23;20013;-41
2022/01/14 12:25:05;;;;;;;8.18;7.38;;;;;;;;;;6172756;23;20094;-41
2022/01/14 12:27:40;;;;;;;10.07;7.82;;;;;;;;;;6170616;23;20057;-41
2022/01/14 12:30:07;;;;;;;8.20;7.40;;;;;;;;;;6171781;23;20009;-41
2022/01/14 12:32:34;;;;;;;9.75;7.45;;;;;;;;;;6172581;23;20067;-44
2022/01/14 12:35:01;;;;;;;7.60;6.90;;;;;;;;;;6172996;23;20024;-41
2022/01/14 12:37:34;;;;;;;11.35;8.43;;;;;;;;;;6173515;23;20024;-41
2022/01/14 12:40:03;;;;;;;8.95;8.05;;;;;;;;;;6173843;23;20028;-41
2022/01/14 12:42:28;;;;;;;8.00;6.43;;;;;;;;;;6174318;23;20009;-42
2022/01/14 12:44:54;;;;;;;9.98;6.88;;;;;;;;;;6173470;23;20031;-41
2022/01/14 12:47:24;;;;;;;8.20;6.10;;;;;;;;;;6174016;23;20370;-41
2022/01/14 12:49:49;;;;;;;7.55;6.53;;;;;;;;;;6173781;23;20009;-41
2022/01/14 12:52:17;;;;;;;7.13;6.53;;;;;;;;;;6173009;23;20477;-42
2022/01/14 12:54:48;;;;;;;10.10;7.05;;;;;;;;;;6173213;23;20136;-41
2022/01/14 12:57:14;;;;;;;6.93;6.22;;;;;;;;;;6135389;23;20048;-41
2022/01/14 12:59:39;;;;;;;6.90;6.30;;;;;;;;;;6172383;23;20017;-41
2022/01/14 13:02:05;;;;;;;6.95;6.35;;;;;;;;;;6173325;23;20013;-41
2022/01/14 13:04:30;;;;;;;9.15;6.05;;;;;;;;;;6172566;23;20055;-41
2022/01/14 13:06:57;;;;;;;6.80;6.10;;;;;;;;;;6173838;23;20066;-43
2022/01/14 13:09:28;;;;;;;6.68;5.93;;;;;;;;;;6172403;23;20041;-41
2022/01/14 13:11:55;;;;;;;7.97;6.18;;;;;;;;;;6173048;23;20687;-44
2022/01/14 13:14:28;;;;;;;7.45;6.75;;;;;;;;;;6171919;23;20009;-43
2022/01/14 13:16:54;;;;;;;6.38;5.78;;;;;;;;;;6172509;23;20028;-43
2022/01/14 13:19:23;;;;;;;6.82;6.20;;;;;;;;;;6172233;23;20013;-41
2022/01/14 13:21:49;;;;;;;6.70;6.05;;;;;;;;;;6172958;23;20024;-42
2022/01/14 13:24:32;;;;;;;6.68;6.10;;;;;;;;;;6170523;23;20009;-41
2022/01/14 13:27:02;;;;;;;6.50;5.75;;;;;;;;;;6172162;23;20509;-41
2022/01/14 13:29:54;;;;;;;7.45;6.63;;;;;;;;;;6171800;23;20501;-41
2022/01/14 13:32:24;;;;;;;7.80;7.00;;;;;;;;;;6135963;23;20465;-42
2022/01/14 13:34:51;;;;;;;9.15;5.90;;;;;;;;;;6173580;23;20418;-43
2022/01/14 13:37:17;;;;;;;6.15;5.65;;;;;;;;;;6172007;23;20234;-44
2022/01/14 13:39:42;;;;;;;7.07;6.45;;;;;;;;;;6173008;23;20083;-41
2022/01/14 13:42:20;;;;;;;7.32;6.25;;;;;;;;;;6172372;23;20021;-43
2022/01/14 13:44:46;;;;;;;12.15;6.72;;;;;;;;;;6172376;23;20096;-41
2022/01/14 13:47:18;;;;;;;6.85;6.10;;;;;;;;;;6172724;23;20017;-41
2022/01/14 13:49:43;;;;;;;6.85;5.93;;;;;;;;;;6170719;23;20009;-41
2022/01/14 13:52:12;;;;;;;7.90;5.72;;;;;;;;;;6173132;23;20013;-41
2022/01/14 13:54:38;;;;;;;7.38;6.30;;;;;;;;;;6171347;23;20064;-41
2022/01/14 13:57:15;;;;;;;7.10;6.05;;;;;;;;;;6172811;23;20053;-42
2022/01/14 13:59:41;;;;;;;6.32;5.72;;;;;;;;;;6171187;23;20033;-41
2022/01/14 14:02:08;;;;;;;6.78;6.18;;;;;;;;;;6173419;23;20024;-42
2022/01/14 14:04:41;;;;;;;8.93;6.50;;;;;;;;;;6171384;23;20017;-42
2022/01/14 14:07:12;;;;;;;7.35;6.65;;;;;;;;;;6123747;23;20024;-42
2022/01/14 14:12:39;;;;;;;6.18;5.57;;;;;;;;;;6173640;23;20021;-42
2022/01/14 14:18:08;;;;;;;6.68;5.65;;;;;;;;;;6172439;23;20024;-42
2022/01/14 14:20:34;;;;;;;6.47;5.63;;;;;;;;;;6146532;23;20082;-41
2022/01/14 14:23:12;;;;;;;6.47;5.88;;;;;;;;;;6173083;23;20021;-41
2022/01/14 14:25:39;;;;;;;6.13;5.53;;;;;;;;;;6171675;23;20016;-41
2022/01/14 14:28:09;;;;;;;6.30;5.50;;;;;;;;;;6171615;23;20067;-41
2022/01/14 14:30:36;;;;;;;6.13;5.57;;;;;;;;;;6169698;23;20463;-41
2022/01/14 14:33:04;;;;;;;7.10;5.65;;;;;;;;;;6172586;23;20510;-42
2022/01/14 14:35:34;;;;;;;8.27;6.03;;;;;;;;;;6170661;23;20471;-41
2022/01/14 14:38:00;;;;;;;5.97;5.30;;;;;;;;;;6173448;23;20749;-41
2022/01/14 14:40:29;;;;;;;8.00;6.10;;;;;;;;;;6171536;23;20088;-42
2022/01/14 14:42:54;;;;;;;7.40;6.40;;;;;;;;;;6172986;23;20020;-41
2022/01/14 14:45:20;;;;;;;6.07;5.57;;;;;;;;;;6171200;23;20045;-42
2022/01/14 14:47:45;;;;;;;6.35;5.75;;;;;;;;;;6172679;23;20013;-42
2022/01/14 14:50:11;;;;;;;6.65;6.05;;;;;;;;;;6172670;23;20449;-42
2022/01/14 14:52:37;;;;;;;7.97;6.53;;;;;;;;;;6171082;23;20020;-43
2022/01/14 14:55:07;;;;;;;8.50;5.70;;;;;;;;;;6172426;23;20024;-42
2022/01/14 14:57:32;;;;;;;7.20;6.15;;;;;;;;;;6170985;23;20029;-43
2022/01/14 14:59:58;;;;;;;9.15;5.70;;;;;;;;;;6172319;23;20017;-42
2022/01/14 15:02:23;;;;;;;7.53;6.78;;;;;;;;;;6172220;23;20088;-41
2022/01/14 15:04:48;;;;;;;6.10;5.50;;;;;;;;;;6172594;23;20443;-41
2022/01/14 15:07:14;;;;;;;6.22;5.55;;;;;;;;;;6172208;23;20043;-43
2022/01/14 15:09:39;;;;;;;6.30;5.70;;;;;;;;;;6172585;23;20029;-46
2022/01/14 15:12:05;;;;;;;8.20;5.95;;;;;;;;;;6172108;23;20017;-46
2022/01/14 15:14:31;;;;;;;6.18;5.53;;;;;;;;;;6170834;23;20017;-42